Strona główna
METAR-TAF:

METAR-TAF

Lotnisko :

Port lotniczy Khon Kaen

Khon Kaen, Tajlandia

Szerokość geograficzna: 16-26N, Długość geograficzna: 102-50E, wysokość: 165 m

Aktualna obserwacja pogody

Raport powstał 15 minut temu, godzina 22:00 UTC
Wiatr 4 kt od wschód, zmienny między wschodnio-północny wschód i południowy wschód
Temperatura 25°C
Wilgotność 74%
Ciśnienie 1012 hPa
Widzialność: 9000 m
Mało chmury na wysokości 3000 ft

METAR: VTUK 102200Z 10004KT 060V140 9000 FEW030 25/20 Q1012 NOSIG

czas: 05:15 (22:15 UTC)

Prognoza

Raport powstał 5 godziny i 15 minut temu, godzina 17:00 UTC
Prognoza ważna od 10 godzina 18 UTC do 11 godzina 18 UTC
Wiatr 4 kt od północno-północny wschód
Widzialność: 9000 m
Mało chmury na wysokości 3000 ft
Stopniowe zmiany
od 11 godzina 04 UTC do 11 godzina 06 UTC
Wiatr 6 kt od wschód

TAF: VTUK 101700Z 1018/1118 03004KT 9000 FEW030 BECMG 1104/1106 10006KT

Obserwacja i prognoza pogody dla ponad 4000 lotnisk (raport METAR i TAF).

Dostępne stacje oznaczono żółtymi i czerwonymi punktami na mapie.

Najedź kursorem aby zobaczyć nazwę stacji.

Kliknij aby zobaczyć obserwacje i prognozy pogody.

Aby zmienić mapę: kliknij na zielony przycisk z czarnym krzyżykiem, aby powiększyć; na zielony przycisk z myślnikiem, aby pomniejszyć; na zielone strzałki, aby przejść do map sąsiednich.


METAR-TAF: